createdAt,value
2023-01-27T00:01:09.013Z,100691.19
2023-01-27T00:03:36.120Z,100686.06
2023-01-27T00:06:04.893Z,100692.34
2023-01-27T00:08:31.915Z,100691.63
2023-01-27T00:11:18.452Z,100684.63
2023-01-27T00:13:45.610Z,100672.28
2023-01-27T00:16:12.622Z,100685.28
2023-01-27T00:18:39.720Z,100677.56
2023-01-27T00:21:25.445Z,100678.81
2023-01-27T00:24:10.750Z,100678.72
2023-01-27T00:26:37.806Z,100672.56
2023-01-27T00:29:05.166Z,100679.44
2023-01-27T00:31:50.684Z,100677.03
2023-01-27T00:34:17.686Z,100676.69
2023-01-27T00:36:44.703Z,100672.56
2023-01-27T00:39:12.801Z,100665.91
2023-01-27T00:41:40.704Z,100676.31
2023-01-27T00:44:13.156Z,100673.72
2023-01-27T00:46:42.833Z,100668.53
2023-01-27T00:49:10.949Z,100668.59
2023-01-27T00:51:38.135Z,100667.63
2023-01-27T00:54:05.947Z,100664.13
2023-01-27T00:56:33.156Z,100667.72
2023-01-27T00:59:00.671Z,100668.53
2023-01-27T01:01:28.256Z,100661.88
2023-01-27T01:03:55.311Z,100661.88
2023-01-27T01:06:22.281Z,100663.69
2023-01-27T01:08:50.073Z,100657.41
2023-01-27T01:11:19.451Z,100655.00
2023-01-27T01:13:47.265Z,100657.75
2023-01-27T01:16:16.573Z,100662.06
2023-01-27T01:18:43.902Z,100666.44
2023-01-27T01:21:11.773Z,100663.50
2023-01-27T01:23:41.934Z,100657.31
2023-01-27T01:26:11.840Z,100662.88
2023-01-27T01:28:39.593Z,100667.34
2023-01-27T01:31:10.264Z,100661.25
2023-01-27T01:33:37.871Z,100659.47
2023-01-27T01:36:11.714Z,100661.00
2023-01-27T01:38:38.910Z,100660.56
2023-01-27T01:41:09.849Z,100665.03
2023-01-27T01:43:36.829Z,100658.84
2023-01-27T01:46:04.619Z,100656.25
2023-01-27T01:48:42.645Z,100667.81
2023-01-27T01:51:35.417Z,100663.59
2023-01-27T01:54:33.571Z,100664.41
2023-01-27T01:57:08.776Z,100669.50
2023-01-27T01:59:44.328Z,100672.63
2023-01-27T02:02:15.920Z,100675.13
2023-01-27T02:05:12.239Z,100672.38
2023-01-27T02:07:59.071Z,100671.72
2023-01-27T02:10:26.318Z,100679.34
2023-01-27T02:12:53.292Z,100668.97
2023-01-27T02:15:21.683Z,100672.53
2023-01-27T02:17:49.629Z,100671.72
2023-01-27T02:20:48.438Z,100672.28
2023-01-27T02:23:52.474Z,100679.06
2023-01-27T02:26:39.251Z,100669.03
2023-01-27T02:29:11.316Z,100671.66
2023-01-27T02:31:39.139Z,100669.94
2023-01-27T02:34:17.705Z,100677.44
2023-01-27T02:37:01.152Z,100673.78
2023-01-27T02:39:36.357Z,100671.09
2023-01-27T02:42:05.720Z,100680.06
2023-01-27T02:44:33.375Z,100685.34
2023-01-27T02:47:00.416Z,100688.75
2023-01-27T02:49:27.493Z,100685.50
2023-01-27T02:51:54.514Z,100675.75
2023-01-27T02:54:21.537Z,100687.75
2023-01-27T02:56:48.714Z,100684.09
2023-01-27T02:59:15.718Z,100685.25
2023-01-27T03:01:42.884Z,100674.59
2023-01-27T03:04:11.981Z,100686.94
2023-01-27T03:06:39.416Z,100684.34
2023-01-27T03:09:06.506Z,100686.94
2023-01-27T03:11:52.437Z,100684.97
2023-01-27T03:14:19.426Z,100685.63
2023-01-27T03:17:04.755Z,100688.75
2023-01-27T03:19:31.856Z,100690.25
2023-01-27T03:22:03.303Z,100684.16
2023-01-27T03:24:30.323Z,100680.78
2023-01-27T03:26:57.599Z,100679.53
2023-01-27T03:29:42.897Z,100683.91
2023-01-27T03:32:09.874Z,100679.97
2023-01-27T03:34:36.909Z,100680.84
2023-01-27T03:37:22.797Z,100680.06
2023-01-27T03:40:08.716Z,100678.34
2023-01-27T03:42:54.106Z,100676.47
2023-01-27T03:45:39.542Z,100674.03
2023-01-27T03:48:06.735Z,100670.47
2023-01-27T03:50:43.292Z,100673.78
2023-01-27T03:53:11.349Z,100675.66
2023-01-27T03:55:39.271Z,100683.63
2023-01-27T03:58:30.652Z,100680.06
2023-01-27T04:01:00.780Z,100681.75
2023-01-27T04:03:50.467Z,100674.84
2023-01-27T04:06:42.890Z,100679.41
2023-01-27T04:09:12.488Z,100682.19
2023-01-27T04:11:57.982Z,100672.69
2023-01-27T04:14:42.153Z,100679.84
2023-01-27T04:17:18.155Z,100678.94
2023-01-27T04:19:46.468Z,100679.75
2023-01-27T04:22:15.857Z,100678.22
2023-01-27T04:24:43.290Z,100682.63
2023-01-27T04:27:14.074Z,100675.72
2023-01-27T04:29:42.661Z,100682.72
2023-01-27T04:32:12.403Z,100672.31
2023-01-27T04:34:40.484Z,100673.13
2023-01-27T04:37:08.879Z,100675.81
2023-01-27T04:39:36.644Z,100676.78
2023-01-27T04:42:04.247Z,100677.69
2023-01-27T04:44:31.326Z,100678.50
2023-01-27T04:46:58.317Z,100678.50
2023-01-27T04:49:27.078Z,100680.28
2023-01-27T04:51:55.179Z,100682.06
2023-01-27T04:54:22.254Z,100671.69
2023-01-27T04:57:01.436Z,100670.88
2023-01-27T04:59:28.504Z,100670.78
2023-01-27T05:01:55.777Z,100666.56
2023-01-27T05:04:23.016Z,100669.16
2023-01-27T05:06:50.216Z,100677.84
2023-01-27T05:09:17.369Z,100670.88
2023-01-27T05:11:44.430Z,100674.53
2023-01-27T05:14:11.483Z,100677.13
2023-01-27T05:16:39.614Z,100674.44
2023-01-27T05:19:07.439Z,100685.91
2023-01-27T05:21:34.695Z,100683.22
2023-01-27T05:24:02.613Z,100676.31
2023-01-27T05:26:29.586Z,100684.19
2023-01-27T05:29:00.009Z,100680.78
2023-01-27T05:31:31.732Z,100679.81
2023-01-27T05:34:00.983Z,100686.81
2023-01-27T05:36:29.676Z,100679.97
2023-01-27T05:39:01.038Z,100675.69
2023-01-27T05:41:31.772Z,100680.16
2023-01-27T05:43:59.159Z,100672.28
2023-01-27T05:46:30.054Z,100686.25
2023-01-27T05:49:04.325Z,100683.66
2023-01-27T05:51:42.626Z,100684.63
2023-01-27T05:54:10.577Z,100684.72
2023-01-27T05:56:37.747Z,100695.03
2023-01-27T05:59:04.909Z,100694.22
2023-01-27T06:01:39.917Z,100698.53
2023-01-27T06:04:06.991Z,100702.91
2023-01-27T06:06:34.863Z,100709.91
2023-01-27T06:09:02.338Z,100707.38
2023-01-27T06:11:29.567Z,100712.50
2023-01-27T06:13:57.107Z,100713.31
2023-01-27T06:16:24.712Z,100716.81
2023-01-27T06:18:52.231Z,100723.78
2023-01-27T06:21:20.655Z,100721.09
2023-01-27T06:23:47.967Z,100723.88
2023-01-27T06:26:17.849Z,100722.09
2023-01-27T06:28:45.294Z,100725.50
2023-01-27T06:31:19.797Z,100727.19
2023-01-27T06:33:47.253Z,100731.59
2023-01-27T06:36:18.265Z,100732.41
2023-01-27T06:38:47.117Z,100739.38
2023-01-27T06:41:14.320Z,100743.78
2023-01-27T06:43:41.276Z,100746.38
2023-01-27T06:46:08.294Z,100753.44
2023-01-27T06:48:35.466Z,100749.88
2023-01-27T06:51:02.503Z,100743.84
2023-01-27T06:53:31.406Z,100755.31
2023-01-27T06:56:02.052Z,100764.19
2023-01-27T06:58:29.358Z,100768.50
2023-01-27T07:00:57.139Z,100770.91
2023-01-27T07:03:24.895Z,100766.53
2023-01-27T07:05:53.238Z,100775.22
2023-01-27T07:08:20.419Z,100780.59
2023-01-27T07:10:47.449Z,100777.09
2023-01-27T07:13:15.197Z,100791.44
2023-01-27T07:15:42.925Z,100789.63
2023-01-27T07:18:12.244Z,100807.25
2023-01-27T07:20:40.477Z,100809.94
2023-01-27T07:23:07.884Z,100816.75
2023-01-27T07:25:35.583Z,100825.53
2023-01-27T07:28:03.352Z,100828.13
2023-01-27T07:30:31.807Z,100828.94
2023-01-27T07:33:13.083Z,100827.16
2023-01-27T07:35:41.935Z,100831.53
2023-01-27T07:38:09.267Z,100841.13
2023-01-27T07:40:36.562Z,100848.13
2023-01-27T07:43:04.223Z,100852.69
2023-01-27T07:45:31.843Z,100864.00
2023-01-27T07:48:07.918Z,100869.09
2023-01-27T07:50:36.988Z,100870.00
2023-01-27T07:53:05.652Z,100869.91
2023-01-27T07:55:33.806Z,100883.88
2023-01-27T07:58:00.985Z,100889.28
2023-01-27T08:00:29.048Z,100896.97
2023-01-27T08:02:57.858Z,100898.88
2023-01-27T08:05:26.174Z,100902.44
2023-01-27T08:07:56.162Z,100908.53
2023-01-27T08:10:25.258Z,100908.72
2023-01-27T08:12:52.426Z,100915.63
2023-01-27T08:15:19.521Z,100921.91
2023-01-27T08:17:57.091Z,100934.09
2023-01-27T08:20:27.313Z,100943.78
2023-01-27T08:22:54.588Z,100943.06
2023-01-27T08:25:23.162Z,100940.38
2023-01-27T08:27:55.676Z,100946.38
2023-01-27T08:30:23.743Z,100956.00
2023-01-27T08:32:50.808Z,100955.91
2023-01-27T08:35:18.147Z,100963.78
2023-01-27T08:37:49.758Z,100971.69
2023-01-27T08:40:18.109Z,100981.28
2023-01-27T08:42:45.152Z,100982.19
2023-01-27T08:45:12.547Z,100998.06
2023-01-27T08:47:39.594Z,100992.75
2023-01-27T08:50:07.462Z,101000.56
2023-01-27T08:52:34.530Z,101002.44
2023-01-27T08:55:01.611Z,101005.84
2023-01-27T08:57:32.438Z,101019.03
2023-01-27T08:59:59.707Z,101011.16
2023-01-27T09:02:26.978Z,101019.94
2023-01-27T09:04:54.169Z,101024.44
2023-01-27T09:07:21.389Z,101023.72
2023-01-27T09:09:49.634Z,101034.31
2023-01-27T09:12:17.722Z,101041.38
2023-01-27T09:14:44.886Z,101039.59
2023-01-27T09:17:12.089Z,101055.56
2023-01-27T09:19:39.245Z,101064.81
2023-01-27T09:22:06.247Z,101072.97
2023-01-27T09:24:33.154Z,101080.78
2023-01-27T09:27:01.162Z,101091.38
2023-01-27T09:29:29.409Z,101092.19
2023-01-27T09:31:56.457Z,101101.78
2023-01-27T09:34:23.608Z,101107.72
2023-01-27T09:36:59.405Z,101114.00
2023-01-27T09:39:28.088Z,101125.41
2023-01-27T09:42:17.927Z,101132.31
2023-01-27T09:45:25.381Z,101135.72
2023-01-27T09:48:07.793Z,101151.53
2023-01-27T09:51:08.147Z,101159.63
2023-01-27T09:54:08.901Z,101167.59
2023-01-27T09:56:56.895Z,101174.63
2023-01-27T09:59:44.835Z,101181.78
2023-01-27T10:02:31.687Z,101182.06
2023-01-27T10:05:44.281Z,101175.06
2023-01-27T10:08:52.261Z,101167.06
2023-01-27T10:11:43.875Z,101175.97
2023-01-27T10:14:40.926Z,101183.16
2023-01-27T10:18:20.651Z,101186.75
2023-01-27T10:20:51.341Z,101201.75
2023-01-27T10:23:54.145Z,101195.91
2023-01-27T10:26:51.994Z,101191.31
2023-01-27T10:29:30.559Z,101181.63
2023-01-27T10:32:09.791Z,101186.75
2023-01-27T10:35:02.909Z,101192.66
2023-01-27T10:37:50.969Z,101194.94
2023-01-27T10:41:07.718Z,101185.16
2023-01-27T10:44:24.725Z,101187.13
2023-01-27T10:47:12.229Z,101183.88
2023-01-27T10:50:01.770Z,101196.19
2023-01-27T10:53:15.645Z,101188.28
2023-01-27T10:55:53.352Z,101188.19
2023-01-27T10:58:47.500Z,101189.72
2023-01-27T11:01:22.313Z,101186.94
2023-01-27T11:04:17.280Z,101189.53
2023-01-27T11:06:45.747Z,101187.19
2023-01-27T11:09:35.131Z,101196.09
2023-01-27T11:12:09.834Z,101188.00
2023-01-27T11:14:52.320Z,101187.19
2023-01-27T11:17:35.409Z,101185.13
2023-01-27T11:20:20.400Z,101200.31
2023-01-27T11:23:06.959Z,101201.47
2023-01-27T11:25:47.258Z,101206.88
2023-01-27T11:28:41.842Z,101203.44
2023-01-27T11:31:53.723Z,101204.34
2023-01-27T11:34:46.840Z,101189.78
2023-01-27T11:37:32.727Z,101185.38
2023-01-27T11:40:00.323Z,101195.34
2023-01-27T11:42:35.221Z,101191.44
2023-01-27T11:45:03.048Z,101191.28
2023-01-27T11:47:36.910Z,101193.97
2023-01-27T11:50:05.830Z,101176.09
2023-01-27T11:52:34.133Z,101189.75
2023-01-27T11:55:36.527Z,101189.19
2023-01-27T11:58:58.120Z,101184.06
2023-01-27T12:01:51.318Z,101176.22
2023-01-27T12:04:23.245Z,101197.47
2023-01-27T12:07:03.195Z,101202.75
2023-01-27T12:09:40.141Z,101198.53
2023-01-27T12:12:22.705Z,101187.09
2023-01-27T12:15:00.605Z,101179.28
2023-01-27T12:17:52.953Z,101193.91
2023-01-27T12:20:24.969Z,101189.81
2023-01-27T12:22:59.685Z,101192.75
2023-01-27T12:25:45.337Z,101197.75
2023-01-27T12:28:46.647Z,101205.78
2023-01-27T12:31:27.604Z,101192.03
2023-01-27T12:34:31.835Z,101188.63
2023-01-27T12:37:00.790Z,101178.09
2023-01-27T12:39:50.634Z,101180.94
2023-01-27T12:42:36.972Z,101166.50
2023-01-27T12:45:35.731Z,101169.28
2023-01-27T12:48:18.755Z,101170.44
2023-01-27T12:50:51.499Z,101186.81
2023-01-27T12:53:27.986Z,101173.59
2023-01-27T12:56:07.605Z,101154.75
2023-01-27T12:58:57.045Z,101165.59
2023-01-27T13:01:30.492Z,101154.09
2023-01-27T13:04:10.164Z,101147.22
2023-01-27T13:06:43.468Z,101141.19
2023-01-27T13:09:31.117Z,101162.06
2023-01-27T13:12:03.383Z,101164.81
2023-01-27T13:14:40.054Z,101136.28
2023-01-27T13:17:38.382Z,101155.13
2023-01-27T13:20:33.889Z,101153.72
2023-01-27T13:23:18.899Z,101152.19
2023-01-27T13:26:11.715Z,101131.47
2023-01-27T13:29:03.160Z,101131.63
2023-01-27T13:31:43.132Z,101145.84
2023-01-27T13:34:23.147Z,101141.50
2023-01-27T13:37:28.509Z,101153.66
2023-01-27T13:40:07.352Z,101143.06
2023-01-27T13:42:46.336Z,101135.06
2023-01-27T13:45:24.214Z,101144.13
2023-01-27T13:47:55.084Z,101149.81
2023-01-27T13:50:22.130Z,101152.41
2023-01-27T13:52:56.786Z,101157.06
2023-01-27T13:55:50.757Z,101126.56
2023-01-27T13:59:01.603Z,101137.34
2023-01-27T14:01:47.345Z,101137.56
2023-01-27T14:05:06.238Z,101138.03
2023-01-27T14:07:56.435Z,101121.97
2023-01-27T14:10:38.353Z,101124.50
2023-01-27T14:13:33.202Z,101121.16
2023-01-27T14:16:09.977Z,101124.81
2023-01-27T14:19:21.775Z,101117.56
2023-01-27T14:22:05.564Z,101123.91
2023-01-27T14:24:44.548Z,101112.41
2023-01-27T14:27:34.707Z,101115.09
2023-01-27T14:30:41.720Z,101112.56
2023-01-27T14:33:55.957Z,101096.50
2023-01-27T14:36:39.126Z,101098.38
2023-01-27T14:39:39.145Z,101124.06
2023-01-27T14:42:24.590Z,101118.53
2023-01-27T14:45:13.704Z,101108.75
2023-01-27T14:48:07.460Z,101109.41
2023-01-27T14:50:49.649Z,101104.78
2023-01-27T14:53:22.575Z,101094.31
2023-01-27T14:56:16.499Z,101097.91
2023-01-27T14:59:19.661Z,101096.28
2023-01-27T15:02:12.054Z,101092.63
2023-01-27T15:05:26.119Z,101100.38
2023-01-27T15:08:17.688Z,101113.50
2023-01-27T15:11:16.171Z,101110.00
2023-01-27T15:14:20.770Z,101117.91
2023-01-27T15:17:21.276Z,101114.34
2023-01-27T15:20:09.126Z,101123.88
2023-01-27T15:23:09.218Z,101123.88
2023-01-27T15:25:52.858Z,101130.91
2023-01-27T15:28:26.135Z,101135.22
2023-01-27T15:31:31.290Z,101143.81
2023-01-27T15:34:23.290Z,101135.97
2023-01-27T15:37:20.708Z,101134.03
2023-01-27T15:40:05.922Z,101128.06
2023-01-27T15:42:52.828Z,101116.78
2023-01-27T15:45:27.274Z,101110.66
2023-01-27T15:48:03.335Z,101115.88
2023-01-27T15:50:33.547Z,101118.50
2023-01-27T15:53:06.853Z,101119.25
2023-01-27T15:55:38.276Z,101111.34
2023-01-27T15:58:23.416Z,101113.94
2023-01-27T16:00:56.844Z,101120.13
2023-01-27T16:03:28.930Z,101125.38
2023-01-27T16:06:12.441Z,101125.38
2023-01-27T16:08:55.898Z,101131.47
2023-01-27T16:11:29.106Z,101135.06
2023-01-27T16:14:14.491Z,101132.38
2023-01-27T16:16:50.550Z,101128.78
2023-01-27T16:20:00.100Z,101137.38
2023-01-27T16:22:28.847Z,101141.69
2023-01-27T16:25:30.994Z,101150.44
2023-01-27T16:28:18.925Z,101151.16
2023-01-27T16:31:06.583Z,101157.28
2023-01-27T16:33:46.545Z,101157.38
2023-01-27T16:36:42.925Z,101155.50
2023-01-27T16:39:21.231Z,101159.75
2023-01-27T16:42:00.317Z,101164.06
2023-01-27T16:44:41.988Z,101159.75
2023-01-27T16:47:26.994Z,101163.97
2023-01-27T16:49:59.825Z,101163.00
2023-01-27T16:52:42.161Z,101168.31
2023-01-27T16:55:22.930Z,101168.16
2023-01-27T16:57:51.203Z,101167.34
2023-01-27T17:00:35.454Z,101171.81
2023-01-27T17:03:15.414Z,101170.91
2023-01-27T17:05:46.564Z,101165.63
2023-01-27T17:08:26.852Z,101170.09
2023-01-27T17:11:06.469Z,101166.59
2023-01-27T17:13:53.235Z,101163.81
2023-01-27T17:16:46.528Z,101169.88
2023-01-27T17:19:25.240Z,101168.16
2023-01-27T17:22:00.608Z,101172.47
2023-01-27T17:24:33.252Z,101174.19
2023-01-27T17:27:24.430Z,101175.16
2023-01-27T17:29:55.978Z,101175.16
2023-01-27T17:32:34.537Z,101166.44
2023-01-27T17:35:06.816Z,101168.38
2023-01-27T17:37:33.866Z,101179.66
2023-01-27T17:40:05.913Z,101165.53
2023-01-27T17:42:34.315Z,101170.69
2023-01-27T17:45:30.029Z,101170.75
2023-01-27T17:48:01.208Z,101172.56
2023-01-27T17:50:37.323Z,101177.63
2023-01-27T17:53:11.072Z,101168.97
2023-01-27T17:55:38.856Z,101180.22
2023-01-27T17:58:12.054Z,101172.41
2023-01-27T18:00:42.200Z,101174.06
2023-01-27T18:03:32.895Z,101174.06
2023-01-27T18:06:00.519Z,101166.34
2023-01-27T18:08:27.888Z,101169.13
2023-01-27T18:11:21.420Z,101160.41
2023-01-27T18:13:54.520Z,101167.56
2023-01-27T18:16:24.428Z,101161.53
2023-01-27T18:18:52.034Z,101161.28
2023-01-27T18:21:25.007Z,101160.41
2023-01-27T18:23:58.311Z,101157.94
2023-01-27T18:26:46.886Z,101153.38
2023-01-27T18:29:33.785Z,101153.47
2023-01-27T18:32:13.167Z,101153.38
2023-01-27T18:34:50.315Z,101155.00
2023-01-27T18:37:36.308Z,101158.41
2023-01-27T18:40:27.730Z,101156.88
2023-01-27T18:42:56.393Z,101160.31
2023-01-27T18:45:25.081Z,101162.94
2023-01-27T18:47:56.152Z,101167.97
2023-01-27T18:50:25.401Z,101167.16
2023-01-27T18:52:53.684Z,101169.13
2023-01-27T18:55:30.369Z,101164.06
2023-01-27T18:58:00.638Z,101171.81
2023-01-27T19:00:51.764Z,101171.75
2023-01-27T19:03:22.682Z,101170.91
2023-01-27T19:05:50.844Z,101171.00
2023-01-27T19:08:21.419Z,101169.22
2023-01-27T19:10:49.640Z,101170.25
2023-01-27T19:13:17.751Z,101164.16
2023-01-27T19:15:50.136Z,101164.88
2023-01-27T19:18:37.313Z,101176.06
2023-01-27T19:21:05.058Z,101181.13
2023-01-27T19:23:32.803Z,101180.84
2023-01-27T19:26:02.157Z,101177.44
2023-01-27T19:28:31.328Z,101189.66
2023-01-27T19:30:59.232Z,101192.19
2023-01-27T19:33:28.648Z,101198.22
2023-01-27T19:36:01.776Z,101195.63
2023-01-27T19:38:30.393Z,101193.16
2023-01-27T19:40:57.460Z,101193.09
2023-01-27T19:43:24.453Z,101192.19
2023-01-27T19:45:52.776Z,101197.34
2023-01-27T19:48:23.870Z,101198.97
2023-01-27T19:50:52.157Z,101196.44
2023-01-27T19:53:20.164Z,101203.38
2023-01-27T19:55:48.112Z,101202.47
2023-01-27T19:58:24.928Z,101203.28
2023-01-27T20:00:53.153Z,101202.38
2023-01-27T20:03:24.738Z,101201.16
2023-01-27T20:08:33.431Z,101208.03
2023-01-27T20:11:00.390Z,101207.03
2023-01-27T20:13:27.396Z,101204.59
2023-01-27T20:15:54.489Z,101215.13
2023-01-27T20:18:23.839Z,101204.84
2023-01-27T20:20:51.072Z,101212.84
2023-01-27T20:23:18.134Z,101202.47
2023-01-27T20:25:45.192Z,101204.63
2023-01-27T20:28:14.702Z,101198.31
2023-01-27T20:30:42.985Z,101198.31
2023-01-27T20:33:11.360Z,101193.16
2023-01-27T20:35:38.361Z,101197.56
2023-01-27T20:38:05.299Z,101195.91
2023-01-27T20:40:32.287Z,101201.13
2023-01-27T20:43:00.942Z,101200.47
2023-01-27T20:45:27.953Z,101199.50
2023-01-27T20:47:56.117Z,101204.63
2023-01-27T20:50:25.885Z,101211.66
2023-01-27T20:52:54.048Z,101208.13
2023-01-27T20:55:21.302Z,101208.94
2023-01-27T20:57:49.490Z,101202.91
2023-01-27T21:00:21.870Z,101205.41
2023-01-27T21:02:49.442Z,101204.63
2023-01-27T21:05:17.068Z,101207.94
2023-01-27T21:07:44.332Z,101217.69
2023-01-27T21:10:12.071Z,101214.97
2023-01-27T21:12:39.509Z,101218.31
2023-01-27T21:15:09.984Z,101220.00
2023-01-27T21:17:37.524Z,101217.41
2023-01-27T21:20:05.248Z,101222.78
2023-01-27T21:22:34.533Z,101221.91
2023-01-27T21:25:01.832Z,101226.22
2023-01-27T21:27:28.901Z,101228.00
2023-01-27T21:29:55.927Z,101220.00
2023-01-27T21:32:22.978Z,101213.72
2023-01-27T21:34:50.004Z,101218.06
2023-01-27T21:37:17.488Z,101215.38
2023-01-27T21:39:44.637Z,101214.47
2023-01-27T21:42:14.505Z,101217.97
2023-01-27T21:44:59.864Z,101218.06
2023-01-27T21:47:27.052Z,101210.38
2023-01-27T21:50:04.080Z,101213.00
2023-01-27T21:52:31.081Z,101207.03
2023-01-27T21:54:58.011Z,101217.41
2023-01-27T21:57:24.990Z,101212.91
2023-01-27T21:59:51.918Z,101221.00
2023-01-27T22:02:18.957Z,101214.78
2023-01-27T22:04:46.903Z,101221.72
2023-01-27T22:07:16.623Z,101217.25
2023-01-27T22:09:43.787Z,101212.03
2023-01-27T22:12:14.323Z,101219.03
2023-01-27T22:14:41.578Z,101219.94
2023-01-27T22:17:09.415Z,101217.31
2023-01-27T22:19:39.875Z,101212.91
2023-01-27T22:22:13.216Z,101213.72
2023-01-27T22:24:40.405Z,101214.63
2023-01-27T22:27:07.517Z,101207.78
2023-01-27T22:29:34.491Z,101207.63
2023-01-27T22:32:01.604Z,101210.22
2023-01-27T22:34:28.648Z,101208.50
2023-01-27T22:36:55.645Z,101212.19
2023-01-27T22:39:23.617Z,101205.97
2023-01-27T22:41:50.878Z,101200.59
2023-01-27T22:44:18.649Z,101205.81
2023-01-27T22:46:48.793Z,101204.09
2023-01-27T22:49:16.190Z,101208.34
2023-01-27T22:51:48.789Z,101207.44
2023-01-27T22:54:16.033Z,101198.63
2023-01-27T22:56:43.333Z,101207.28
2023-01-27T22:59:13.864Z,101193.25
2023-01-27T23:01:41.084Z,101203.69
2023-01-27T23:04:08.093Z,101195.78
2023-01-27T23:06:35.041Z,101202.81
2023-01-27T23:09:01.992Z,101201.81
2023-01-27T23:11:29.049Z,101193.91
2023-01-27T23:13:56.062Z,101195.63
2023-01-27T23:16:23.554Z,101196.50
2023-01-27T23:18:50.689Z,101194.63
2023-01-27T23:21:17.633Z,101194.63
2023-01-27T23:23:44.727Z,101178.00
2023-01-27T23:26:12.041Z,101187.47
2023-01-27T23:28:39.604Z,101197.91
2023-01-27T23:31:12.328Z,101197.97
2023-01-27T23:33:41.771Z,101196.19
2023-01-27T23:36:10.930Z,101191.69
2023-01-27T23:38:38.564Z,101191.78
2023-01-27T23:41:14.419Z,101192.50
2023-01-27T23:43:41.480Z,101195.94
2023-01-27T23:46:08.531Z,101193.31
2023-01-27T23:48:35.523Z,101198.56
2023-01-27T23:51:10.675Z,101204.66
2023-01-27T23:53:37.682Z,101206.53
2023-01-27T23:56:05.574Z,101203.94
2023-01-27T23:58:32.663Z,101204.09
